MLA2291 LKMT-LZZI
Flight info
| Callsign | MLA2291 |
|---|---|
| Flight time | 0h 31m |
| Altitude | 8000 |
| Route | BILNA1E BILNA BILNA3B |
| Aircraft | C208/L-V/N |
Departure
| Time | 2026-04-21 22:18 |
|---|---|
| Airport | Leoš Janáček Airport Ostrava (LKMT) |
Arrival
| Time | 2026-04-21 22:49 |
|---|---|
| Airport | Žilina-Dolný Hričov Airport (LZZI) |
| Time | Latitude | Longitude | Altitude | Speed | Heading |
|---|---|---|---|---|---|
| 2026-04-21 21:34 | 49.69489 | 18.11887 | 820 ft | 0 kts | 136° |
| 2026-04-21 21:45 | 49.69498 | 18.11874 | 820 ft | 4 kts | 136° |
| 2026-04-21 21:45 | 49.69518 | 18.11845 | 820 ft | 4 kts | 137° |
| 2026-04-21 21:45 | 49.69539 | 18.11819 | 820 ft | 4 kts | 158° |
| 2026-04-21 21:45 | 49.69552 | 18.11824 | 820 ft | 1 kts | 226° |
| 2026-04-21 21:46 | 49.69553 | 18.11826 | 820 ft | 0 kts | 226° |
| 2026-04-21 21:47 | 49.69550 | 18.11821 | 820 ft | 4 kts | 237° |
| 2026-04-21 21:48 | 49.69517 | 18.11837 | 820 ft | 11 kts | 74° |
| 2026-04-21 21:48 | 49.69538 | 18.11865 | 820 ft | 0 kts | 0° |
| 2026-04-21 22:12 | 49.69569 | 18.11849 | 820 ft | 10 kts | 327° |
| 2026-04-21 22:12 | 49.69600 | 18.11742 | 820 ft | 13 kts | 244° |
| 2026-04-21 22:12 | 49.69530 | 18.11638 | 820 ft | 15 kts | 227° |
| 2026-04-21 22:13 | 49.69453 | 18.11513 | 820 ft | 17 kts | 225° |
| 2026-04-21 22:13 | 49.69364 | 18.11371 | 820 ft | 19 kts | 226° |
| 2026-04-21 22:13 | 49.69272 | 18.11218 | 820 ft | 20 kts | 227° |
| 2026-04-21 22:13 | 49.69207 | 18.11116 | 820 ft | 20 kts | 225° |
| 2026-04-21 22:14 | 49.69111 | 18.10959 | 820 ft | 20 kts | 226° |
| 2026-04-21 22:14 | 49.69017 | 18.10812 | 820 ft | 20 kts | 226° |
| 2026-04-21 22:14 | 49.68923 | 18.10660 | 820 ft | 19 kts | 226° |
| 2026-04-21 22:14 | 49.68831 | 18.10511 | 820 ft | 19 kts | 226° |
| 2026-04-21 22:15 | 49.68736 | 18.10363 | 820 ft | 20 kts | 226° |
| 2026-04-21 22:15 | 49.68644 | 18.10213 | 820 ft | 19 kts | 226° |
| 2026-04-21 22:15 | 49.68552 | 18.10066 | 820 ft | 19 kts | 224° |
| 2026-04-21 22:15 | 49.68458 | 18.09917 | 820 ft | 20 kts | 228° |
| 2026-04-21 22:16 | 49.68367 | 18.09764 | 820 ft | 19 kts | 228° |
| 2026-04-21 22:16 | 49.68342 | 18.09642 | 820 ft | 10 kts | 308° |
| 2026-04-21 22:16 | 49.68390 | 18.09547 | 820 ft | 12 kts | 316° |
| 2026-04-21 22:16 | 49.68459 | 18.09460 | 822 ft | 13 kts | 320° |
| 2026-04-21 22:17 | 49.68517 | 18.09383 | 828 ft | 9 kts | 329° |
| 2026-04-21 22:17 | 49.68599 | 18.09436 | 830 ft | 39 kts | 45° |
| 2026-04-21 22:17 | 49.68993 | 18.10055 | 926 ft | 106 kts | 44° |
| 2026-04-21 22:17 | 49.69558 | 18.10961 | 1123 ft | 129 kts | 46° |
| 2026-04-21 22:18 | 49.70218 | 18.12041 | 1322 ft | 145 kts | 46° |
| 2026-04-21 22:18 | 49.70917 | 18.13181 | 1529 ft | 150 kts | 46° |
| 2026-04-21 22:18 | 49.71641 | 18.14364 | 1738 ft | 151 kts | 45° |
| 2026-04-21 22:18 | 49.72376 | 18.15555 | 1951 ft | 154 kts | 44° |
| 2026-04-21 22:19 | 49.73120 | 18.16757 | 2167 ft | 157 kts | 44° |
| 2026-04-21 22:19 | 49.73862 | 18.17963 | 2381 ft | 154 kts | 44° |
| 2026-04-21 22:19 | 49.74599 | 18.19164 | 2563 ft | 150 kts | 44° |
| 2026-04-21 22:19 | 49.75306 | 18.20318 | 2784 ft | 147 kts | 46° |
| 2026-04-21 22:20 | 49.76019 | 18.21460 | 2977 ft | 147 kts | 44° |
| 2026-04-21 22:20 | 49.76720 | 18.22606 | 3162 ft | 144 kts | 44° |
| 2026-04-21 22:20 | 49.77272 | 18.23897 | 3363 ft | 146 kts | 63° |
| 2026-04-21 22:20 | 49.77504 | 18.25428 | 3575 ft | 154 kts | 80° |
| 2026-04-21 22:21 | 49.77379 | 18.27099 | 3769 ft | 161 kts | 102° |
| 2026-04-21 22:21 | 49.76830 | 18.28629 | 3956 ft | 165 kts | 123° |
| 2026-04-21 22:21 | 49.75989 | 18.29874 | 4156 ft | 168 kts | 132° |
| 2026-04-21 22:21 | 49.75155 | 18.31093 | 4360 ft | 164 kts | 130° |
| 2026-04-21 22:22 | 49.74330 | 18.32330 | 4560 ft | 167 kts | 131° |
| 2026-04-21 22:22 | 49.73477 | 18.33565 | 4771 ft | 168 kts | 131° |
| 2026-04-21 22:22 | 49.72635 | 18.34793 | 4974 ft | 165 kts | 130° |
| 2026-04-21 22:22 | 49.71764 | 18.35953 | 5157 ft | 169 kts | 146° |
| 2026-04-21 22:23 | 49.70648 | 18.36552 | 5354 ft | 172 kts | 170° |
| 2026-04-21 22:23 | 49.69468 | 18.36832 | 5561 ft | 170 kts | 166° |
| 2026-04-21 22:23 | 49.68292 | 18.37172 | 5757 ft | 172 kts | 166° |
| 2026-04-21 22:23 | 49.67100 | 18.37481 | 5950 ft | 173 kts | 167° |
| 2026-04-21 22:24 | 49.65921 | 18.37792 | 6151 ft | 172 kts | 167° |
| 2026-04-21 22:24 | 49.64796 | 18.38085 | 6339 ft | 169 kts | 167° |
| 2026-04-21 22:24 | 49.63623 | 18.38391 | 6540 ft | 173 kts | 167° |
| 2026-04-21 22:24 | 49.62445 | 18.38699 | 6737 ft | 171 kts | 167° |
| 2026-04-21 22:25 | 49.61277 | 18.39011 | 6944 ft | 170 kts | 167° |
| 2026-04-21 22:25 | 49.60102 | 18.39311 | 7140 ft | 171 kts | 168° |
| 2026-04-21 22:25 | 49.58926 | 18.39616 | 7348 ft | 170 kts | 167° |
| 2026-04-21 22:25 | 49.57761 | 18.39938 | 7536 ft | 173 kts | 167° |
| 2026-04-21 22:26 | 49.56585 | 18.40233 | 7738 ft | 170 kts | 168° |
| 2026-04-21 22:26 | 49.55423 | 18.40539 | 7948 ft | 170 kts | 167° |
| 2026-04-21 22:26 | 49.54246 | 18.40850 | 7999 ft | 175 kts | 167° |
| 2026-04-21 22:26 | 49.53024 | 18.41155 | 8003 ft | 180 kts | 169° |
| 2026-04-21 22:27 | 49.51778 | 18.41478 | 8007 ft | 182 kts | 167° |
| 2026-04-21 22:27 | 49.50524 | 18.41821 | 8007 ft | 184 kts | 167° |
| 2026-04-21 22:27 | 49.49258 | 18.42147 | 8009 ft | 184 kts | 168° |
| 2026-04-21 22:27 | 49.47990 | 18.42475 | 8009 ft | 185 kts | 168° |
| 2026-04-21 22:28 | 49.46706 | 18.42804 | 8002 ft | 188 kts | 168° |
| 2026-04-21 22:28 | 49.45418 | 18.43141 | 7997 ft | 187 kts | 168° |
| 2026-04-21 22:28 | 49.44137 | 18.43476 | 7995 ft | 186 kts | 167° |
| 2026-04-21 22:28 | 49.42857 | 18.43808 | 7998 ft | 187 kts | 168° |
| 2026-04-21 22:29 | 49.41564 | 18.44146 | 7990 ft | 188 kts | 168° |
| 2026-04-21 22:29 | 49.40276 | 18.44478 | 7995 ft | 187 kts | 168° |
| 2026-04-21 22:29 | 49.38981 | 18.44426 | 8006 ft | 190 kts | 193° |
| 2026-04-21 22:29 | 49.37752 | 18.43683 | 8001 ft | 190 kts | 204° |
| 2026-04-21 22:30 | 49.36544 | 18.42918 | 8003 ft | 190 kts | 201° |
| 2026-04-21 22:30 | 49.35321 | 18.42149 | 8016 ft | 190 kts | 202° |
| 2026-04-21 22:30 | 49.34088 | 18.41374 | 8003 ft | 191 kts | 202° |
| 2026-04-21 22:30 | 49.32867 | 18.40588 | 8008 ft | 190 kts | 202° |
| 2026-04-21 22:31 | 49.31638 | 18.39787 | 8007 ft | 192 kts | 202° |
| 2026-04-21 22:31 | 49.30406 | 18.39015 | 7999 ft | 191 kts | 202° |
| 2026-04-21 22:31 | 49.29176 | 18.38239 | 8013 ft | 193 kts | 202° |
| 2026-04-21 22:31 | 49.27946 | 18.37452 | 7922 ft | 194 kts | 202° |
| 2026-04-21 22:32 | 49.26695 | 18.36647 | 7801 ft | 193 kts | 202° |
| 2026-04-21 22:32 | 49.25469 | 18.35879 | 7656 ft | 192 kts | 202° |
| 2026-04-21 22:32 | 49.24230 | 18.35091 | 7505 ft | 192 kts | 202° |
| 2026-04-21 22:32 | 49.23008 | 18.34315 | 7365 ft | 188 kts | 202° |
| 2026-04-21 22:33 | 49.21800 | 18.33559 | 7225 ft | 186 kts | 202° |
| 2026-04-21 22:33 | 49.20609 | 18.32778 | 7089 ft | 186 kts | 207° |
| 2026-04-21 22:33 | 49.19653 | 18.31507 | 7011 ft | 179 kts | 235° |
| 2026-04-21 22:33 | 49.19070 | 18.29881 | 6999 ft | 172 kts | 249° |
| 2026-04-21 22:34 | 49.18554 | 18.28245 | 7004 ft | 170 kts | 246° |
| 2026-04-21 22:34 | 49.18036 | 18.26613 | 6998 ft | 171 kts | 248° |
| 2026-04-21 22:34 | 49.17482 | 18.25028 | 6989 ft | 169 kts | 235° |
| 2026-04-21 22:34 | 49.16573 | 18.23961 | 6983 ft | 168 kts | 205° |
| 2026-04-21 22:35 | 49.15417 | 18.23604 | 6762 ft | 172 kts | 175° |
| 2026-04-21 22:35 | 49.14296 | 18.24083 | 6484 ft | 164 kts | 146° |
| 2026-04-21 22:35 | 49.13494 | 18.25184 | 6234 ft | 148 kts | 120° |
| 2026-04-21 22:35 | 49.13078 | 18.26552 | 5989 ft | 137 kts | 97° |
| 2026-04-21 22:36 | 49.13484 | 18.29079 | 5613 ft | 121 kts | 62° |
| 2026-04-21 22:36 | 49.13823 | 18.30247 | 5485 ft | 120 kts | 61° |
| 2026-04-21 22:36 | 49.14142 | 18.31369 | 5376 ft | 111 kts | 62° |
| 2026-04-21 22:37 | 49.14433 | 18.32405 | 5237 ft | 107 kts | 61° |
| 2026-04-21 22:37 | 49.14735 | 18.33470 | 5094 ft | 113 kts | 62° |
| 2026-04-21 22:37 | 49.15042 | 18.34601 | 4902 ft | 113 kts | 62° |
| 2026-04-21 22:37 | 49.15372 | 18.35753 | 4662 ft | 121 kts | 61° |
| 2026-04-21 22:38 | 49.15939 | 18.36625 | 4497 ft | 112 kts | 28° |
| 2026-04-21 22:38 | 49.16660 | 18.36899 | 4491 ft | 106 kts | 2° |
| 2026-04-21 22:38 | 49.17385 | 18.36601 | 4458 ft | 111 kts | 336° |
| 2026-04-21 22:38 | 49.17838 | 18.35658 | 4514 ft | 122 kts | 297° |
| 2026-04-21 22:39 | 49.17920 | 18.34286 | 4504 ft | 140 kts | 263° |
| 2026-04-21 22:39 | 49.17503 | 18.32934 | 4520 ft | 142 kts | 249° |
| 2026-04-21 22:39 | 49.17018 | 18.31572 | 4492 ft | 142 kts | 245° |
| 2026-04-21 22:39 | 49.16592 | 18.30246 | 4496 ft | 138 kts | 249° |
| 2026-04-21 22:40 | 49.16162 | 18.28899 | 4481 ft | 142 kts | 248° |
| 2026-04-21 22:40 | 49.15626 | 18.27668 | 4496 ft | 144 kts | 221° |
| 2026-04-21 22:40 | 49.14673 | 18.27285 | 4480 ft | 144 kts | 169° |
| 2026-04-21 22:40 | 49.13834 | 18.27966 | 4498 ft | 136 kts | 126° |
| 2026-04-21 22:41 | 49.13511 | 18.29198 | 4490 ft | 119 kts | 87° |
| 2026-04-21 22:41 | 49.13689 | 18.30378 | 4490 ft | 114 kts | 59° |
| 2026-04-21 22:41 | 49.14026 | 18.31428 | 4494 ft | 107 kts | 60° |
| 2026-04-21 22:41 | 49.14345 | 18.32457 | 4495 ft | 108 kts | 59° |
| 2026-04-21 22:42 | 49.14686 | 18.33541 | 4498 ft | 120 kts | 62° |
| 2026-04-21 22:42 | 49.15012 | 18.34651 | 4532 ft | 113 kts | 60° |
| 2026-04-21 22:42 | 49.15378 | 18.35794 | 4470 ft | 120 kts | 60° |
| 2026-04-21 22:42 | 49.15706 | 18.36878 | 4534 ft | 111 kts | 59° |
| 2026-04-21 22:43 | 49.16060 | 18.37963 | 4510 ft | 117 kts | 59° |
| 2026-04-21 22:43 | 49.16409 | 18.39066 | 4460 ft | 114 kts | 59° |
| 2026-04-21 22:43 | 49.16761 | 18.40190 | 4356 ft | 123 kts | 62° |
| 2026-04-21 22:43 | 49.17127 | 18.41409 | 4170 ft | 126 kts | 59° |
| 2026-04-21 22:44 | 49.17480 | 18.42519 | 3995 ft | 105 kts | 59° |
| 2026-04-21 22:44 | 49.17766 | 18.43430 | 3860 ft | 94 kts | 60° |
| 2026-04-21 22:44 | 49.18047 | 18.44331 | 3659 ft | 93 kts | 59° |
| 2026-04-21 22:44 | 49.18329 | 18.45212 | 3556 ft | 94 kts | 60° |
| 2026-04-21 22:45 | 49.18602 | 18.46104 | 3406 ft | 93 kts | 57° |
| 2026-04-21 22:45 | 49.18884 | 18.46972 | 3206 ft | 85 kts | 59° |
| 2026-04-21 22:45 | 49.19133 | 18.47808 | 3129 ft | 90 kts | 60° |
| 2026-04-21 22:45 | 49.19397 | 18.48661 | 2974 ft | 86 kts | 58° |
| 2026-04-21 22:46 | 49.19652 | 18.49465 | 2859 ft | 83 kts | 57° |
| 2026-04-21 22:46 | 49.19922 | 18.50319 | 2717 ft | 94 kts | 60° |
| 2026-04-21 22:46 | 49.20195 | 18.51201 | 2577 ft | 90 kts | 59° |
| 2026-04-21 22:46 | 49.20469 | 18.52074 | 2444 ft | 92 kts | 61° |
| 2026-04-21 22:47 | 49.20739 | 18.52959 | 2318 ft | 93 kts | 60° |
| 2026-04-21 22:47 | 49.21035 | 18.53889 | 2155 ft | 100 kts | 62° |
| 2026-04-21 22:47 | 49.21332 | 18.54856 | 1998 ft | 101 kts | 61° |
| 2026-04-21 22:47 | 49.21626 | 18.55825 | 1841 ft | 99 kts | 63° |
| 2026-04-21 22:48 | 49.21926 | 18.56777 | 1682 ft | 98 kts | 63° |
| 2026-04-21 22:48 | 49.22213 | 18.57696 | 1532 ft | 96 kts | 64° |
| 2026-04-21 22:48 | 49.22501 | 18.58624 | 1386 ft | 96 kts | 64° |
| 2026-04-21 22:48 | 49.22785 | 18.59544 | 1244 ft | 95 kts | 64° |
| 2026-04-21 22:49 | 49.23060 | 18.60434 | 1088 ft | 86 kts | 65° |
| 2026-04-21 22:49 | 49.23273 | 18.61140 | 1023 ft | 53 kts | 62° |
| 2026-04-21 22:49 | 49.23350 | 18.61376 | 1023 ft | 10 kts | 65° |
| 2026-04-21 22:49 | 49.23328 | 18.61457 | 1022 ft | 12 kts | 150° |
| 2026-04-21 22:50 | 49.23263 | 18.61504 | 1022 ft | 9 kts | 145° |
| 2026-04-21 22:50 | 49.23270 | 18.61592 | 1022 ft | 10 kts | 62° |
| 2026-04-21 22:50 | 49.23279 | 18.61661 | 1022 ft | 1 kts | 158° |
| 2026-04-21 22:50 | 49.23273 | 18.61662 | 1022 ft | 0 kts | 193° |
| 2026-04-21 22:51 | 49.23269 | 18.61655 | 1022 ft | 0 kts | 263° |
| 2026-04-21 22:51 | 49.23271 | 18.61642 | 1022 ft | 0 kts | 276° |
| 2026-04-21 22:51 | 49.23272 | 18.61634 | 1022 ft | 0 kts | 278° |